createdAt,value
2023-03-07T00:00:02.433Z,98417.86
2023-03-07T00:02:40.666Z,98415.05
2023-03-07T00:05:15.082Z,98414.50
2023-03-07T00:07:47.300Z,98416.59
2023-03-07T00:10:20.126Z,98417.71
2023-03-07T00:12:52.393Z,98418.09
2023-03-07T00:15:24.623Z,98419.46
2023-03-07T00:17:57.104Z,98420.14
2023-03-07T00:20:29.211Z,98421.39
2023-03-07T00:23:01.340Z,98421.86
2023-03-07T00:25:33.432Z,98422.97
2023-03-07T00:28:05.758Z,98419.91
2023-03-07T00:30:38.453Z,98417.06
2023-03-07T00:33:10.561Z,98413.02
2023-03-07T00:35:42.685Z,98411.92
2023-03-07T00:38:14.893Z,98406.37
2023-03-07T00:40:47.104Z,98407.05
2023-03-07T00:43:19.404Z,98407.70
2023-03-07T00:45:51.604Z,98406.12
2023-03-07T00:48:25.296Z,98399.81
2023-03-07T00:50:57.890Z,98399.48
2023-03-07T00:53:30.887Z,98398.15
2023-03-07T00:56:05.763Z,98394.55
2023-03-07T00:58:38.864Z,98389.61
2023-03-07T01:01:13.336Z,98394.00
2023-03-07T01:03:46.250Z,98392.89
2023-03-07T01:06:22.332Z,98387.72
2023-03-07T01:08:55.070Z,98387.82
2023-03-07T01:11:27.847Z,98383.42
2023-03-07T01:14:01.608Z,98381.91
2023-03-07T01:16:37.428Z,98379.27
2023-03-07T01:19:12.866Z,98378.13
2023-03-07T01:21:46.589Z,98375.63
2023-03-07T01:24:18.941Z,98372.30
2023-03-07T01:26:51.044Z,98373.71
2023-03-07T01:29:23.117Z,98374.08
2023-03-07T01:31:55.488Z,98371.66
2023-03-07T01:34:27.783Z,98369.65
2023-03-07T01:37:00.602Z,98369.58
2023-03-07T01:39:32.921Z,98366.08
2023-03-07T01:42:12.565Z,98363.09
2023-03-07T01:45:03.077Z,98362.70
2023-03-07T01:47:47.574Z,98356.11
2023-03-07T01:50:21.182Z,98353.36
2023-03-07T01:52:57.378Z,98354.92
2023-03-07T01:55:31.341Z,98351.13
2023-03-07T01:58:15.184Z,98349.20
2023-03-07T02:00:47.955Z,98345.63
2023-03-07T02:03:27.799Z,98342.83
2023-03-07T02:06:02.630Z,98346.21
2023-03-07T02:08:37.459Z,98347.65
2023-03-07T02:11:10.408Z,98348.59
2023-03-07T02:13:42.574Z,98347.94
2023-03-07T02:16:15.460Z,98344.71
2023-03-07T02:18:50.293Z,98345.11
2023-03-07T02:21:32.627Z,98349.78
2023-03-07T02:24:17.403Z,98347.68
2023-03-07T02:26:51.171Z,98346.98
2023-03-07T02:29:23.868Z,98344.73
2023-03-07T02:31:55.996Z,98347.14
2023-03-07T02:34:30.642Z,98348.96
2023-03-07T02:37:27.001Z,98347.98
2023-03-07T02:40:02.336Z,98344.84
2023-03-07T02:42:39.002Z,98340.80
2023-03-07T02:45:17.123Z,98339.86
2023-03-07T02:47:49.637Z,98338.74
2023-03-07T02:50:23.063Z,98340.23
2023-03-07T02:52:57.074Z,98338.16
2023-03-07T02:55:29.411Z,98336.84
2023-03-07T02:58:05.169Z,98339.98
2023-03-07T03:00:37.905Z,98343.13
2023-03-07T03:03:12.080Z,98339.17
2023-03-07T03:05:44.290Z,98338.33
2023-03-07T03:08:16.585Z,98340.12
2023-03-07T03:10:52.954Z,98343.26
2023-03-07T03:13:26.530Z,98338.03
2023-03-07T03:16:00.214Z,98336.13
2023-03-07T03:18:33.327Z,98339.26
2023-03-07T03:21:10.666Z,98337.42
2023-03-07T03:23:43.319Z,98331.34
2023-03-07T03:26:15.804Z,98333.48
2023-03-07T03:28:48.143Z,98334.71
2023-03-07T03:31:20.612Z,98331.24
2023-03-07T03:33:53.608Z,98331.30
2023-03-07T03:36:26.805Z,98332.57
2023-03-07T03:39:01.630Z,98334.09
2023-03-07T03:41:35.182Z,98332.99
2023-03-07T03:44:08.642Z,98335.72
2023-03-07T03:46:40.992Z,98329.93
2023-03-07T03:49:16.988Z,98328.70
2023-03-07T03:51:49.883Z,98335.42
2023-03-07T03:54:22.766Z,98337.48
2023-03-07T03:56:56.334Z,98338.14
2023-03-07T03:59:28.752Z,98338.41
2023-03-07T04:02:01.161Z,98340.84
2023-03-07T04:04:34.408Z,98344.00
2023-03-07T04:07:06.596Z,98346.18
2023-03-07T04:09:38.658Z,98344.13
2023-03-07T04:12:11.421Z,98342.80
2023-03-07T04:14:43.514Z,98342.08
2023-03-07T04:17:15.580Z,98342.77
2023-03-07T04:19:48.052Z,98342.59
2023-03-07T04:22:20.223Z,98339.07
2023-03-07T04:24:52.545Z,98333.32
2023-03-07T04:27:25.137Z,98329.98
2023-03-07T04:29:58.338Z,98328.40
2023-03-07T04:32:30.721Z,98328.48
2023-03-07T04:35:03.084Z,98327.17
2023-03-07T04:37:35.141Z,98326.35
2023-03-07T04:40:08.303Z,98322.92
2023-03-07T04:42:40.794Z,98322.31
2023-03-07T04:45:14.395Z,98317.76
2023-03-07T04:47:46.671Z,98310.74
2023-03-07T04:50:19.659Z,98310.80
2023-03-07T04:52:52.388Z,98312.56
2023-03-07T04:55:24.931Z,98316.02
2023-03-07T04:57:57.900Z,98313.15
2023-03-07T05:00:30.834Z,98305.55
2023-03-07T05:03:03.214Z,98305.84
2023-03-07T05:05:37.603Z,98302.17
2023-03-07T05:08:11.432Z,98301.98
2023-03-07T05:10:43.831Z,98303.47
2023-03-07T05:13:16.063Z,98305.40
2023-03-07T05:15:54.087Z,98303.85
2023-03-07T05:18:28.663Z,98309.33
2023-03-07T05:21:02.701Z,98305.15
2023-03-07T05:23:34.966Z,98298.80
2023-03-07T05:26:07.592Z,98300.23
2023-03-07T05:28:40.101Z,98305.67
2023-03-07T05:31:12.309Z,98303.11
2023-03-07T05:33:44.543Z,98304.77
2023-03-07T05:36:17.047Z,98300.92
2023-03-07T05:38:49.549Z,98299.36
2023-03-07T05:41:21.915Z,98297.67
2023-03-07T05:43:56.490Z,98296.41
2023-03-07T05:46:28.740Z,98291.13
2023-03-07T05:49:01.594Z,98289.31
2023-03-07T05:51:34.505Z,98293.98
2023-03-07T05:54:07.430Z,98293.80
2023-03-07T05:56:40.805Z,98283.77
2023-03-07T05:59:15.671Z,98286.53
2023-03-07T06:01:49.288Z,98288.48
2023-03-07T06:04:22.697Z,98285.92
2023-03-07T06:06:55.825Z,98285.98
2023-03-07T06:09:28.718Z,98283.20
2023-03-07T06:12:02.191Z,98283.23
2023-03-07T06:14:36.987Z,98287.77
2023-03-07T06:17:09.890Z,98290.35
2023-03-07T06:19:42.270Z,98289.05
2023-03-07T06:22:14.916Z,98286.15
2023-03-07T06:24:47.557Z,98282.67
2023-03-07T06:27:20.156Z,98285.13
2023-03-07T06:29:52.963Z,98291.79
2023-03-07T06:32:25.525Z,98291.55
2023-03-07T06:34:58.181Z,98286.11
2023-03-07T06:37:31.694Z,98288.06
2023-03-07T06:40:06.542Z,98287.31
2023-03-07T06:42:40.542Z,98285.59
2023-03-07T06:45:13.621Z,98285.47
2023-03-07T06:47:45.684Z,98284.98
2023-03-07T06:50:23.741Z,98282.30
2023-03-07T06:53:02.268Z,98278.90
2023-03-07T06:55:34.590Z,98272.92
2023-03-07T06:58:07.389Z,98275.11
2023-03-07T07:00:39.677Z,98273.69
2023-03-07T07:03:13.749Z,98271.86
2023-03-07T07:05:45.982Z,98273.85
2023-03-07T07:08:18.291Z,98271.10
2023-03-07T07:10:50.830Z,98270.72
2023-03-07T07:13:23.763Z,98275.55
2023-03-07T07:15:56.130Z,98273.16
2023-03-07T07:18:29.321Z,98274.68
2023-03-07T07:21:01.689Z,98267.16
2023-03-07T07:23:33.867Z,98269.09
2023-03-07T07:26:06.251Z,98263.84
2023-03-07T07:28:38.718Z,98260.47
2023-03-07T07:31:12.521Z,98259.35
2023-03-07T07:33:46.698Z,98257.64
2023-03-07T07:36:22.024Z,98255.36
2023-03-07T07:38:55.481Z,98252.18
2023-03-07T07:41:30.636Z,98250.32
2023-03-07T07:44:03.230Z,98246.78
2023-03-07T07:46:42.031Z,98242.27
2023-03-07T07:49:14.117Z,98241.14
2023-03-07T07:51:46.305Z,98243.88
2023-03-07T07:54:19.703Z,98241.10
2023-03-07T07:56:53.047Z,98243.95
2023-03-07T07:59:25.939Z,98241.30
2023-03-07T08:01:58.311Z,98236.02
2023-03-07T08:04:30.764Z,98236.96
2023-03-07T08:07:03.138Z,98235.36
2023-03-07T08:09:36.156Z,98236.69
2023-03-07T08:12:10.688Z,98234.35
2023-03-07T08:14:43.048Z,98236.64
2023-03-07T08:17:15.549Z,98238.00
2023-03-07T08:19:49.852Z,98234.59
2023-03-07T08:22:22.124Z,98236.42
2023-03-07T08:24:54.318Z,98232.84
2023-03-07T08:27:26.866Z,98233.48
2023-03-07T08:29:58.983Z,98234.92
2023-03-07T08:32:31.316Z,98241.45
2023-03-07T08:35:04.180Z,98234.61
2023-03-07T08:37:36.773Z,98235.05
2023-03-07T08:40:11.119Z,98234.19
2023-03-07T08:42:43.405Z,98228.98
2023-03-07T08:45:15.742Z,98231.36
2023-03-07T08:47:47.751Z,98234.44
2023-03-07T08:50:26.321Z,98230.61
2023-03-07T08:52:59.749Z,98239.58
2023-03-07T08:55:31.945Z,98232.74
2023-03-07T08:58:04.144Z,98230.91
2023-03-07T09:00:36.493Z,98227.16
2023-03-07T09:03:09.650Z,98224.08
2023-03-07T09:05:41.984Z,98223.71
2023-03-07T09:08:14.233Z,98218.27
2023-03-07T09:10:46.362Z,98211.29
2023-03-07T09:13:19.055Z,98207.23
2023-03-07T09:15:51.681Z,98212.29
2023-03-07T09:18:23.981Z,98211.90
2023-03-07T09:20:56.207Z,98215.90
2023-03-07T09:23:28.578Z,98215.48
2023-03-07T09:26:04.392Z,98212.24
2023-03-07T09:28:36.352Z,98205.00
2023-03-07T09:31:12.711Z,98202.71
2023-03-07T09:33:46.983Z,98199.37
2023-03-07T09:36:20.781Z,98200.96
2023-03-07T09:38:52.857Z,98193.44
2023-03-07T09:41:40.958Z,98190.86
2023-03-07T09:44:23.112Z,98189.04
2023-03-07T09:47:30.954Z,98183.08
2023-03-07T09:50:12.658Z,98180.82
2023-03-07T09:52:45.844Z,98179.22
2023-03-07T09:55:22.166Z,98172.35
2023-03-07T09:57:58.525Z,98169.37
2023-03-07T10:00:36.687Z,98159.39
2023-03-07T10:03:18.433Z,98152.70
2023-03-07T10:05:55.330Z,98148.19
2023-03-07T10:08:30.962Z,98152.32
2023-03-07T10:11:15.926Z,98152.25
2023-03-07T10:13:58.883Z,98146.30
2023-03-07T10:16:37.854Z,98153.66
2023-03-07T10:19:17.550Z,98144.05
2023-03-07T10:21:58.609Z,98149.38
2023-03-07T10:24:42.177Z,98142.55
2023-03-07T10:27:16.134Z,98137.43
2023-03-07T10:29:51.225Z,98145.83
2023-03-07T10:32:38.183Z,98142.71
2023-03-07T10:35:21.139Z,98148.89
2023-03-07T10:37:56.999Z,98152.34
2023-03-07T10:40:33.274Z,98145.14
2023-03-07T10:43:07.587Z,98144.11
2023-03-07T10:45:39.646Z,98145.17
2023-03-07T10:48:19.700Z,98146.23
2023-03-07T10:50:59.851Z,98139.36
2023-03-07T10:53:36.313Z,98135.09
2023-03-07T10:56:17.469Z,98130.95
2023-03-07T10:59:05.551Z,98127.67
2023-03-07T11:01:39.728Z,98114.98
2023-03-07T11:04:23.797Z,98114.80
2023-03-07T11:06:57.648Z,98119.06
2023-03-07T11:09:32.317Z,98109.12
2023-03-07T11:12:20.375Z,98109.48
2023-03-07T11:14:55.107Z,98108.13
2023-03-07T11:17:30.740Z,98114.61
2023-03-07T11:20:06.192Z,98113.79
2023-03-07T11:22:38.359Z,98118.59
2023-03-07T11:25:26.998Z,98107.79
2023-03-07T11:28:00.579Z,98108.63
2023-03-07T11:30:41.807Z,98110.84
2023-03-07T11:33:20.953Z,98110.80
2023-03-07T11:36:08.196Z,98106.31
2023-03-07T11:38:48.625Z,98103.02
2023-03-07T11:41:28.148Z,98106.23
2023-03-07T11:44:13.165Z,98100.90
2023-03-07T11:47:04.167Z,98094.60
2023-03-07T11:49:47.880Z,98091.66
2023-03-07T11:52:40.275Z,98089.61
2023-03-07T11:55:26.934Z,98072.68
2023-03-07T11:58:18.605Z,98066.89
2023-03-07T12:01:06.533Z,98067.76
2023-03-07T12:04:15.366Z,98059.55
2023-03-07T12:06:58.829Z,98056.48
2023-03-07T12:09:45.357Z,98057.16
2023-03-07T12:12:42.587Z,98065.20
2023-03-07T12:15:29.889Z,98060.55
2023-03-07T12:18:18.172Z,98059.16
2023-03-07T12:20:57.818Z,98057.10
2023-03-07T12:23:36.285Z,98054.17
2023-03-07T12:26:17.071Z,98052.41
2023-03-07T12:28:54.246Z,98046.54
2023-03-07T12:31:32.737Z,98052.64
2023-03-07T12:34:08.671Z,98048.83
2023-03-07T12:36:43.573Z,98047.23
2023-03-07T12:39:23.545Z,98046.89
2023-03-07T12:42:10.040Z,98049.93
2023-03-07T12:44:54.875Z,98040.48
2023-03-07T12:47:35.811Z,98039.06
2023-03-07T12:50:16.372Z,98037.86
2023-03-07T12:52:52.893Z,98033.21
2023-03-07T12:55:28.032Z,98031.84
2023-03-07T12:58:09.081Z,98030.30
2023-03-07T13:00:47.262Z,98032.87
2023-03-07T13:03:26.493Z,98034.42
2023-03-07T13:05:59.481Z,98028.79
2023-03-07T13:08:32.247Z,98028.61
2023-03-07T13:11:15.032Z,98021.96
2023-03-07T13:13:57.053Z,98025.22
2023-03-07T13:16:48.061Z,98021.81
2023-03-07T13:19:58.013Z,98027.33
2023-03-07T13:23:11.576Z,98022.89
2023-03-07T13:25:59.980Z,98014.90
2023-03-07T13:28:38.554Z,98008.95
2023-03-07T13:31:29.277Z,98008.83
2023-03-07T13:34:41.671Z,98006.48
2023-03-07T13:37:50.496Z,97999.85
2023-03-07T13:40:40.993Z,98000.77
2023-03-07T13:43:51.711Z,97995.00
2023-03-07T13:46:51.942Z,97995.55
2023-03-07T13:49:46.641Z,97986.33
2023-03-07T13:52:44.567Z,97981.23
2023-03-07T13:55:42.501Z,97973.52
2023-03-07T13:58:27.130Z,97976.63
2023-03-07T14:01:04.327Z,97973.89
2023-03-07T14:03:41.420Z,97970.79
2023-03-07T14:06:17.123Z,97977.66
2023-03-07T14:08:51.291Z,97980.05
2023-03-07T14:11:29.817Z,97974.91
2023-03-07T14:14:45.787Z,97974.39
2023-03-07T14:17:36.454Z,97967.37
2023-03-07T14:20:21.213Z,97966.16
2023-03-07T14:23:09.078Z,97964.11
2023-03-07T14:25:42.592Z,97958.44
2023-03-07T14:28:27.046Z,97959.64
2023-03-07T14:31:01.368Z,97964.77
2023-03-07T14:33:35.971Z,97966.64
2023-03-07T14:36:21.135Z,97959.11
2023-03-07T14:38:57.007Z,97955.51
2023-03-07T14:41:39.524Z,97953.11
2023-03-07T14:44:48.576Z,97946.76
2023-03-07T14:47:36.820Z,97943.16
2023-03-07T14:50:15.756Z,97943.84
2023-03-07T14:52:49.821Z,97941.09
2023-03-07T14:55:24.451Z,97936.63
2023-03-07T14:57:57.716Z,97935.77
2023-03-07T15:00:32.801Z,97933.70
2023-03-07T15:03:10.067Z,97929.43
2023-03-07T15:05:52.562Z,97923.95
2023-03-07T15:08:29.801Z,97920.52
2023-03-07T15:11:07.831Z,97916.73
2023-03-07T15:13:45.954Z,97916.55
2023-03-07T15:16:25.474Z,97915.17
2023-03-07T15:18:59.940Z,97907.30
2023-03-07T15:21:38.399Z,97905.23
2023-03-07T15:24:23.025Z,97895.98
2023-03-07T15:26:57.031Z,97892.89
2023-03-07T15:29:31.475Z,97891.69
2023-03-07T15:32:07.320Z,97892.54
2023-03-07T15:34:41.015Z,97891.83
2023-03-07T15:37:27.564Z,97891.67
2023-03-07T15:40:02.354Z,97890.10
2023-03-07T15:42:35.805Z,97895.56
2023-03-07T15:45:22.588Z,97892.64
2023-03-07T15:47:55.057Z,97888.86
2023-03-07T15:50:29.767Z,97886.13
2023-03-07T15:53:08.038Z,97889.88
2023-03-07T15:55:42.291Z,97884.75
2023-03-07T15:58:17.786Z,97892.27
2023-03-07T16:00:50.004Z,97893.61
2023-03-07T16:03:27.726Z,97889.67
2023-03-07T16:06:01.210Z,97891.55
2023-03-07T16:08:33.422Z,97887.45
2023-03-07T16:11:08.924Z,97885.89
2023-03-07T16:13:45.132Z,97877.83
2023-03-07T16:16:23.733Z,97875.63
2023-03-07T16:18:58.440Z,97882.27
2023-03-07T16:21:30.713Z,97880.67
2023-03-07T16:24:02.986Z,97876.23
2023-03-07T16:26:36.238Z,97870.91
2023-03-07T16:29:10.943Z,97872.06
2023-03-07T16:31:43.326Z,97874.09
2023-03-07T16:34:19.820Z,97872.54
2023-03-07T16:36:52.007Z,97874.95
2023-03-07T16:39:25.312Z,97873.06
2023-03-07T16:41:57.660Z,97874.78
2023-03-07T16:44:29.894Z,97871.52
2023-03-07T16:47:13.578Z,97872.88
2023-03-07T16:49:46.857Z,97877.46
2023-03-07T16:52:19.067Z,97876.92
2023-03-07T16:54:51.267Z,97877.41
2023-03-07T16:57:29.374Z,97877.72
2023-03-07T17:00:01.712Z,97880.08
2023-03-07T17:02:34.084Z,97877.34
2023-03-07T17:05:07.513Z,97875.45
2023-03-07T17:07:40.339Z,97877.84
2023-03-07T17:10:14.889Z,97880.79
2023-03-07T17:12:48.004Z,97878.05
2023-03-07T17:15:24.725Z,97877.18
2023-03-07T17:17:57.138Z,97880.80
2023-03-07T17:20:29.924Z,97880.14
2023-03-07T17:23:02.130Z,97882.70
2023-03-07T17:25:34.598Z,97880.65
2023-03-07T17:28:10.244Z,97880.31
2023-03-07T17:30:48.134Z,97882.34
2023-03-07T17:33:20.429Z,97887.11
2023-03-07T17:35:52.691Z,97887.24
2023-03-07T17:38:25.118Z,97890.64
2023-03-07T17:41:00.114Z,97892.65
2023-03-07T17:43:33.513Z,97887.85
2023-03-07T17:46:11.152Z,97887.51
2023-03-07T17:48:43.359Z,97895.88
2023-03-07T17:51:15.603Z,97893.28
2023-03-07T17:53:53.781Z,97889.15
2023-03-07T17:56:26.256Z,97895.48
2023-03-07T17:59:01.577Z,97891.35
2023-03-07T18:01:35.794Z,97892.71
2023-03-07T18:04:08.424Z,97897.30
2023-03-07T18:06:41.082Z,97898.80
2023-03-07T18:09:15.374Z,97898.25
2023-03-07T18:11:47.734Z,97899.42
2023-03-07T18:14:20.029Z,97903.34
2023-03-07T18:16:52.330Z,97903.17
2023-03-07T18:19:27.048Z,97905.89
2023-03-07T18:21:59.729Z,97905.92
2023-03-07T18:24:32.257Z,97902.88
2023-03-07T18:27:08.714Z,97903.55
2023-03-07T18:29:40.937Z,97899.27
2023-03-07T18:32:14.038Z,97898.55
2023-03-07T18:34:46.732Z,97899.39
2023-03-07T18:37:19.179Z,97895.95
2023-03-07T18:39:51.456Z,97894.09
2023-03-07T18:42:23.976Z,97894.41
2023-03-07T18:44:56.354Z,97895.58
2023-03-07T18:47:28.530Z,97898.97
2023-03-07T18:50:00.809Z,97896.73
2023-03-07T18:52:34.739Z,97894.52
2023-03-07T18:55:07.774Z,97899.34
2023-03-07T18:57:40.304Z,97910.44
2023-03-07T19:00:15.464Z,97908.38
2023-03-07T19:02:47.700Z,97909.71
2023-03-07T19:05:20.138Z,97912.09
2023-03-07T19:07:52.368Z,97917.58
2023-03-07T19:10:24.630Z,97919.63
2023-03-07T19:12:56.765Z,97922.70
2023-03-07T19:15:29.179Z,97922.52
2023-03-07T19:18:01.351Z,97919.44
2023-03-07T19:20:33.720Z,97920.65
2023-03-07T19:23:05.822Z,97914.34
2023-03-07T19:25:38.842Z,97909.73
2023-03-07T19:28:11.221Z,97907.17
2023-03-07T19:30:43.468Z,97898.46
2023-03-07T19:33:15.972Z,97901.48
2023-03-07T19:35:48.280Z,97898.92
2023-03-07T19:38:20.654Z,97898.37
2023-03-07T19:40:52.982Z,97893.77
2023-03-07T19:43:25.255Z,97893.40
2023-03-07T19:45:57.903Z,97893.20
2023-03-07T19:48:30.680Z,97898.45
2023-03-07T19:51:03.101Z,97894.35
2023-03-07T19:53:35.983Z,97897.61
2023-03-07T19:56:13.878Z,97895.60
2023-03-07T19:58:46.226Z,97901.40
2023-03-07T20:01:20.569Z,97886.70
2023-03-07T20:03:54.143Z,97886.67
2023-03-07T20:06:28.333Z,97882.91
2023-03-07T20:09:02.047Z,97883.23
2023-03-07T20:11:36.654Z,97879.63
2023-03-07T20:14:09.297Z,97876.37
2023-03-07T20:16:41.399Z,97874.14
2023-03-07T20:19:14.347Z,97874.30
2023-03-07T20:21:50.116Z,97877.19
2023-03-07T20:24:22.867Z,97877.32
2023-03-07T20:26:55.032Z,97879.51
2023-03-07T20:29:27.428Z,97879.30
2023-03-07T20:32:01.380Z,97879.30
2023-03-07T20:34:33.668Z,97871.79
2023-03-07T20:37:06.084Z,97869.74
2023-03-07T20:39:40.236Z,97860.70
2023-03-07T20:42:12.540Z,97857.61
2023-03-07T20:44:44.713Z,97856.20
2023-03-07T20:47:16.984Z,97859.30
2023-03-07T20:49:49.228Z,97857.77
2023-03-07T20:52:23.744Z,97854.05
2023-03-07T20:54:56.484Z,97855.55
2023-03-07T20:57:28.667Z,97857.92
2023-03-07T21:00:01.214Z,97861.98
2023-03-07T21:02:33.439Z,97858.80
2023-03-07T21:05:05.761Z,97853.38
2023-03-07T21:07:38.296Z,97854.39
2023-03-07T21:10:12.313Z,97861.89
2023-03-07T21:12:44.483Z,97863.77
2023-03-07T21:15:16.656Z,97860.02
2023-03-07T21:17:51.135Z,97857.84
2023-03-07T21:20:23.338Z,97859.73
2023-03-07T21:22:55.472Z,97862.27
2023-03-07T21:25:27.562Z,97873.00
2023-03-07T21:27:59.751Z,97875.90
2023-03-07T21:30:32.083Z,97879.70
2023-03-07T21:33:04.344Z,97877.66
2023-03-07T21:35:41.430Z,97886.17
2023-03-07T21:38:13.697Z,97884.42
2023-03-07T21:40:45.802Z,97889.20
2023-03-07T21:43:18.630Z,97889.55
2023-03-07T21:45:50.837Z,97888.40
2023-03-07T21:48:23.065Z,97883.96
2023-03-07T21:50:55.642Z,97884.65
2023-03-07T21:53:28.383Z,97891.42
2023-03-07T21:56:02.518Z,97890.20
2023-03-07T21:58:35.946Z,97899.23
2023-03-07T22:01:14.596Z,97892.77
2023-03-07T22:03:46.830Z,97898.39
2023-03-07T22:06:19.273Z,97891.86
2023-03-07T22:08:51.637Z,97890.46
2023-03-07T22:11:23.778Z,97894.37
2023-03-07T22:13:55.969Z,97895.08
2023-03-07T22:16:28.497Z,97900.00
2023-03-07T22:19:00.742Z,97908.52
2023-03-07T22:21:33.151Z,97908.65
2023-03-07T22:24:05.307Z,97908.63
2023-03-07T22:26:38.653Z,97912.40
2023-03-07T22:29:10.739Z,97911.21
2023-03-07T22:31:42.916Z,97910.33
2023-03-07T22:34:15.886Z,97911.47
2023-03-07T22:36:48.118Z,97914.39
2023-03-07T22:39:20.303Z,97909.48
2023-03-07T22:41:52.559Z,97908.27
2023-03-07T22:44:24.817Z,97909.27
2023-03-07T22:46:57.234Z,97905.30
2023-03-07T22:49:30.535Z,97905.14
2023-03-07T22:52:02.694Z,97898.49
2023-03-07T22:54:39.306Z,97898.64
2023-03-07T22:57:11.547Z,97902.21
2023-03-07T22:59:43.711Z,97908.34
2023-03-07T23:02:16.047Z,97907.63
2023-03-07T23:04:48.467Z,97908.33
2023-03-07T23:07:20.996Z,97907.29
2023-03-07T23:09:53.088Z,97904.02
2023-03-07T23:12:25.275Z,97903.49
2023-03-07T23:14:57.513Z,97905.84
2023-03-07T23:17:29.736Z,97915.08
2023-03-07T23:20:01.923Z,97917.13
2023-03-07T23:22:34.008Z,97918.11
2023-03-07T23:25:06.664Z,97911.41
2023-03-07T23:27:39.244Z,97916.17
2023-03-07T23:30:13.304Z,97913.61
2023-03-07T23:32:45.503Z,97914.12
2023-03-07T23:35:18.101Z,97913.49
2023-03-07T23:37:51.979Z,97912.25
2023-03-07T23:40:24.339Z,97918.20
2023-03-07T23:42:58.705Z,97916.84
2023-03-07T23:45:31.142Z,97916.67
2023-03-07T23:48:03.348Z,97920.95
2023-03-07T23:50:36.319Z,97925.34
2023-03-07T23:53:08.611Z,97925.83
2023-03-07T23:55:43.322Z,97932.52
2023-03-07T23:58:15.671Z,97937.25
